Tiempo atmosférico en la estación meteorológica de Hierro Aeropuerto, Santa Cruz de Tenerife (32 m.)



Fecha
DESCASC
Temp. máxima en grados centígrados (hora)
DESCASC
Temp. mínima en grados centígrados (hora)
DESCASC
Temp. media en grados centígrados
DESCASC
Racha de viento máxima en m/sg (hora)
DESCASC
Velocidad máxima media en intervalos de 10 minutos(hora)
DESCASC
Precipitaciones diarias en mm
DESCASC
Precipitaciones de 00:00 a 06:00 en mm
DESCASC
Precipitaciones de 06:00 a 12:00 en mm
DESCASC
Precipitaciones de 12:00 a 18:00 en mm
DESCASC
Precipitaciones de 18:00 a 24:00 en mm
DESCASC
08-12-2019 21.4 (12:30) 19.5 (07:10) 20.4 14.44 (02:00) 11.39 (02:00) 0 0 0 0 0
07-12-2019 21.4 (12:20) 18.3 (05:40) 19.8 15 (18:10) 12.22 (19:20) 0.4 0.2 0.2 0 0
06-12-2019 21 (11:50) 18.3 (12:30) 19.6 18.61 (12:30) 15.28 (05:20) 0.9 0.2 0 0.7 0
05-12-2019 20.9 (12:10) 17.6 (00:00) 19.3 18.89 (03:20) 14.72 (04:40) 0.9 0.8 0 0.1 0
04-12-2019 22.1 (11:30) 18.9 (23:10) 20.5 12.78 (23:30) 9.17 (23:50) 0.9 0 0 0 0.9
03-12-2019 21.7 (10:50) 18 (00:00) 19.9 16.11 (06:50) 11.39 (06:50) 0 0 0 0 0
02-12-2019 22.2 (11:00) 19.6 (00:00) 20.9 13.89 (21:30) 10 (14:10) 0 0 0 0 0
01-12-2019 22.5 (11:00) 20.1 (00:00) 21.3 13.33 (11:10) 9.72 (08:30) 0 0 0 0 0
30-11-2019 23.2 (11:50) 20.5 (00:00) 21.9 13.33 (23:50) 6.67 (22:00) 0 0 0 0 0
29-11-2019 22.7 (12:20) 20.3 (00:00) 21.5 12.78 (17:10) 8.89 (17:30) 0 0 0 0 0
28-11-2019 22.8 (11:30) 20.1 (02:40) 21.4 13.89 (21:20) 9.72 (21:20) 0 0 0 0 0
27-11-2019 22.4 (13:30) 20.4 (00:00) 21.4 9.72 (06:30) 8.33 (21:10) 0 0 0 0 0
26-11-2019 23.7 (13:40) 19.7 (00:00) 21.7 9.72 (05:20) 7.5 (18:40) 0 0 0 0 0
25-11-2019 22.6 (13:20) 20 (04:50) 21.3 10.28 (03:40) 8.06 (03:50) 0 0 0 0 0
24-11-2019 23.1 (11:00) 19.7 (00:00) 21.4 10.28 (18:00) 8.33 (18:20) 0 0 0 0 0
23-11-2019 24.4 (13:50) 20.8 (00:00) 22.6 11.39 (00:10) 6.94 (12:10) 0.2 0.2 0 0 0
22-11-2019 24.6 (15:40) 20.3 (00:00) 22.4 11.67 (07:40) 7.78 (07:00) 0.1 0.1 0 0 0
21-11-2019 25 (16:20) 18.1 (00:00) 21.6 12.5 (07:30) 6.39 (23:10) 0 0 0 0 0
20-11-2019 23.2 (12:20) 18.3 (06:00) 20.8 8.33 (18:00) 5.56 (18:10) 1.2 0 0 0 1.2
19-11-2019 22.6 (12:00) 19.4 (00:00) 21 9.72 (17:20) 7.22 (17:20) 0 0 0 0 0
18-11-2019 22.2 (14:10) 19.3 (00:00) 20.8 13.33 (08:20) 10.56 (04:30) 0 0 0 0 0
17-11-2019 20.9 (12:20) 18.2 (00:00) 19.6 16.94 (03:20) 14.17 (03:10) 0 0 0 0 0
16-11-2019 21.6 (10:50) 18.7 (00:00) 20.2 16.39 (18:10) 12.5 (18:00) 0 0 0 0 0
15-11-2019 21.8 (13:10) 19.2 (00:00) 20.5 18.61 (09:50) 14.44 (09:50) 0.2 0 0.1 0.1 0
14-11-2019 22.3 (13:50) 20.7 (00:00) 21.5 15.28 (22:10) 12.5 (22:10) 0 0 0 0 0
13-11-2019 22.8 (13:10) 20.8 (00:00) 21.8 16.11 (00:50) 12.22 (07:30) 0 0 0 0 0
12-11-2019 23.3 (11:10) 21 (00:00) 22.1 16.11 (03:50) 13.33 (07:00) 0 0 0 0 0
11-11-2019 22.9 (13:20) 20.9 (06:10) 21.9 18.89 (10:20) 14.17 (10:20) 0 0 0 0 0
10-11-2019 22.8 (10:50) 20.8 (00:00) 21.8 17.5 (04:20) 13.33 (03:40) 0 0 0 0 0

Gráficas

Temp. máximas Temp. mínimas Temp. medias Precipitaciones Rachas de viento máximas Velocidades máximas media en intervalos de 10 minutos

Datos horarios

Fecha y hora oficial Temperatura (ºC) Velocidad del viento (km/h) Dirección del viento Racha (km/h) Dirección de racha Precipitación (mm) Presión (hPa) Tendencia (hPa) Humedad (%)
2019-12-09 23:00:00 19.8 36 Nordeste 46 Nordeste 0 1023.8 1 71
2019-12-09 22:00:00 19.8 31 Norte 46 Norte 0 1023.8 1.3 72
2019-12-09 21:00:00 19.9 37 Nordeste 46 Nordeste 0 1023.3 1.1 73
2019-12-09 20:00:00 19.9 38 Nordeste 46 Norte 0 1022.8 0.7 74
2019-12-09 19:00:00 20 37 Norte 48 Nordeste 0 1022.5 0.3 75
2019-12-09 18:00:00 20.1 36 Nordeste 46 Nordeste 0 1022.2 -0.1 75
2019-12-09 17:00:00 20 36 Nordeste 48 Nordeste 0 1022.1 -0.8 72
2019-12-09 16:00:00 20.2 33 Nordeste 45 Nordeste 0 1022.2 -1.5 71
2019-12-09 15:00:00 20.4 35 Nordeste 45 Nordeste 0 1022.3 -2 71
2019-12-09 14:00:00 20.5 30 Nordeste 48 Nordeste 0 1022.9 -1.8 71
2019-12-09 13:00:00 20.5 39 Nordeste 54 Nordeste 0 1023.7 -0.7 71
2019-12-09 12:00:00 20.5 38 Nordeste 50 Nordeste 0 1024.3 0.6 68
2019-12-09 11:00:00 20.4 36 Nordeste 48 Nordeste 0 1024.7 1.1 70
2019-12-09 10:00:00 20.4 36 Nordeste 46 Nordeste 0 1024.4 1.3 70
2019-12-09 09:00:00 20 32 Nordeste 45 Nordeste 0 1023.7 1.1 68
2019-12-09 08:00:00 19.7 31 Nordeste 39 Nordeste 0 1023.6 0.9 68
2019-12-09 07:00:00 19.7 28 Nordeste 50 Nordeste 0 1023.1 0.2 70
2019-12-09 06:00:00 19.6 33 Nordeste 48 Nordeste 0 1022.6 -0.6 72
2019-12-09 05:00:00 19.8 35 Nordeste 48 Norte 0 1022.7 -0.7 70
2019-12-09 04:00:00 19.8 32 Norte 45 Norte 0 1022.9 -0.9 72
2019-12-09 03:00:00 19.9 35 Nordeste 48 Nordeste 0 1023.2 -0.9 74
2019-12-09 02:00:00 19.8 37 Nordeste 48 Nordeste 0 1023.4 -0.8 72
2019-12-09 01:00:00 19.9 33 Norte 46 Norte 0 1023.8 0.2 72
2019-12-09 00:00:00 20.1 35 Norte 46 Nordeste 0 1024.1 0.7 72
2019-12-08 23:00:00 20.1 32 Norte 46 Nordeste 0 1024.2 1.3 71
2019-12-08 22:00:00 20 38 Norte 46 Norte 0 1023.6 1.4 73
2019-12-08 21:00:00 20 32 Norte 42 Nordeste 0 1023.4 1.7 72
2019-12-08 20:00:00 20 35 Norte 45 Norte 0 1022.9 1.3 73
2019-12-08 19:00:00 20.1 36 Norte 50 Norte 0 1022.2 0.6 74
2019-12-08 18:00:00 20.2 40 Norte 48 Nordeste 0 1021.7 0 73
2019-12-08 17:00:00 20.2 34 Norte 45 Nordeste 0 1021.6 -0.6 78
2019-12-08 16:00:00 20.9 30 Norte 42 Nordeste 0 1021.6 -1.6 74
2019-12-08 15:00:00 21.1 34 Norte 46 Norte 0 1021.7 -2.2 69
2019-12-08 14:00:00 21 24 Norte 32 Nordeste 0 1022.2 -1.8 69
2019-12-08 13:00:00 20.9 18 Nordeste 33 Nordeste 0 1023.2 -0.6 68
2019-12-08 12:00:00 20.8 19 Este 48 Nordeste 0 1023.9 0.6 69
2019-12-08 11:00:00 21.1 35 Norte 42 Nordeste 0 1024 1.5 69
2019-12-08 10:00:00 20.7 28 Norte 41 Nordeste 0 1023.8 1.9 69
2019-12-08 09:00:00 20.3 32 Nordeste 48 Nordeste 0 1023.3 2 67
2019-12-08 08:00:00 19.9 30 Norte 42 Norte 0 1022.5 1.2 75
2019-12-08 07:00:00 19.7 29 Norte 45 Nordeste 0 1021.9 0.4 75
2019-12-08 06:00:00 19.8 39 Nordeste 50 Nordeste 0 1021.3 -0.4 75
2019-12-08 05:00:00 20 37 Norte 48 Norte 0 1021.3 -0.9 76
2019-12-08 04:00:00 19.9 35 Norte 45 Nordeste 0 1021.5 -0.8 71
2019-12-08 03:00:00 20.1 34 Nordeste 46 Nordeste 0 1021.7 -0.8 72
2019-12-08 02:00:00 20 41 Nordeste 52 Nordeste 0 1022.2 -0.6 72
2019-12-08 01:00:00 20.1 33 Nordeste 42 Nordeste 0 1022.3 -0.4 73
2019-12-08 00:00:00 20.1 31 Norte 39 Norte 0 1022.5 0.4 74
2019-12-07 23:00:00 20.1 28 Norte 41 Norte 0 1022.8 1.3 74
2019-12-07 22:00:00 20.1 30 Norte 45 Norte 0 1022.7 2 72
2019-12-07 21:00:00 20.1 34 Norte 48 Nordeste 0 1022.1 2.4 72
2019-12-07 20:00:00 20.2 39 Norte 52 Norte 0 1021.5 2 72
2019-12-07 19:00:00 20.2 41 Norte 54 Nordeste 0 1020.7 1.1 75
2019-12-07 18:00:00 20.3 39 Norte 52 Norte 0 1019.7 0.4 74
2019-12-07 17:00:00 20.4 39 Norte 48 Norte 0 1019.5 -0.2 76
2019-12-07 16:00:00 20.7 29 Norte 39 Norte 0 1019.6 -0.7 75
2019-12-07 15:00:00 21.1 29 Norte 35 Norte 0 1019.3 -1.7 73
2019-12-07 14:00:00 21 29 Norte 41 Norte 0 1019.7 -1.6 73
2019-12-07 13:00:00 21.3 27 Norte 37 Norte 0 1020.3 -0.8 74
2019-12-07 12:00:00 21.1 27 Norte 37 Norte 0 1021 0.8 70
2019-12-07 11:00:00 20.9 28 Norte 35 Norte 0 1021.3 2 70
2019-12-07 10:00:00 20.1 28 Norte 39 Norte 0 1021.1 2.3 75
2019-12-07 09:00:00 19.9 33 Norte 45 Norte 0 1020.2 1.7 78
2019-12-07 08:00:00 19.4 31 Norte 46 Norte 0 1019.3 1.2 80
2019-12-07 07:00:00 19.8 35 Norte 46 Norte 0.2 1018.8 0.7 77
2019-12-07 06:00:00 18.6 15 Norte 52 Nordeste 0.2 1018.5 0.4 84
2019-12-07 05:00:00 19.9 34 Norte 45 Norte 0 1018.1 0.1 73
2019-12-07 04:00:00 19.9 33 Norte 41 Norte 0 1018.1 0 73
2019-12-07 03:00:00 19.9 30 Norte 42 Norte 0 1018.1 0 74
2019-12-07 02:00:00 19.9 33 Norte 41 Norte 0 1018 0.2 73
2019-12-07 01:00:00 19.9 31 Norte 42 Norte 0 1018.1 0.4 73
2019-12-07 00:00:00 19.8 33 Norte 50 Norte 0 1018.1 0.6 73
2019-12-06 23:00:00 19.8 36 Norte 46 Norte 0 1017.8 0.9 73
2019-12-06 22:00:00 19.9 37 Norte 46 Norte 0 1017.7 1.5 74
2019-12-06 21:00:00 20.1 31 Norte 46 Norte 0 1017.5 1.8 74
2019-12-06 20:00:00 19.9 37 Norte 50 Norte 0 1016.9 1.4 75
2019-12-06 19:00:00 19.9 39 Norte 50 Norte 0 1016.2 0.9 73
2019-12-06 18:00:00 20.1 33 Norte 48 Norte 0 1015.7 0.9 73
2019-12-06 17:00:00 20.3 37 Norte 48 Norte 0 1015.5 0.2 72
2019-12-06 16:00:00 20.4 36 Norte 52 Norte 0 1015.3 -0.6 68
2019-12-06 15:00:00 20.5 45 Norte 54 Norte 0 1014.8 -1.8 71
2019-12-06 14:00:00 20.7 40 Norte 54 Norte 0 1015.3 -1.3 72
2019-12-06 13:00:00 20.2 32 Norte 67 Norte 0.7 1015.9 0.1 78
2019-12-06 12:00:00 20.8 37 Norte 50 Norte 0 1016.6 1.2 72
2019-12-06 11:00:00 20.6 33 Norte 50 Norte 0 1016.6 2 72
2019-12-06 10:00:00 20.4 39 Norte 52 Norte 0 1015.8 1.9 73
2019-12-06 09:00:00 19.9 36 Norte 52 Norte 0 1015.4 2.1 73
2019-12-06 08:00:00 19.7 35 Norte 58 Norte 0 1014.6 1.6 74
2019-12-06 07:00:00 19.5 43 Norte 58 Norte 0 1013.9 1.1 74
2019-12-06 06:00:00 19.6 51 Norte 65 Norte 0 1013.3 0.1 73
2019-12-06 05:00:00 19.7 38 Norte 63 Norte 0.2 1013 0.1 74
2019-12-06 04:00:00 19.6 51 Norte 65 Norte 0 1012.8 -0.3 74
2019-12-06 03:00:00 19.3 39 Norte 59 Norte 0 1013.2 -0.6 76
2019-12-06 02:00:00 19.7 48 Norte 63 Norte 0 1012.9 -1.2 73
2019-12-06 01:00:00 19.6 47 Norte 54 Norte 0 1013.1 -0.6 75
2019-12-06 00:00:00 19.4 37 Norte 58 Norte 0 1013.8 0.8 73
2019-12-05 23:00:00 19.4 36 Norte 61 Norte 0 1014.1 1.6 73
2019-12-05 22:00:00 19.5 35 Norte 59 Norte 0 1013.7 1.6 73
2019-12-05 21:00:00 19.7 45 Norte 63 Norte 0 1013 1.3 69
2019-12-05 20:00:00 18.8 33 Norte 65 Norte 0 1012.5 0.8 73
2019-12-05 19:00:00 18.7 32 Norte 61 Norte 0 1012.1 0.4 76
2019-12-05 18:00:00 19.4 33 Norte 63 Norte 0 1011.7 0.4 66
2019-12-05 17:00:00 19.1 28 Norte 45 Norte 0 1011.7 0 77
2019-12-05 16:00:00 18.6 21 Noroeste 55 Norte 0 1011.7 -0.5 73
2019-12-05 15:00:00 19.4 37 Norte 46 Norte 0 1011.3 -1.8 73
2019-12-05 14:00:00 19.5 37 Norte 58 Norte 0.1 1011.7 -1.8 73
2019-12-05 13:00:00 20.2 46 Noroeste 61 Norte 0 1012.2 -1 70
2019-12-05 12:00:00 20.5 38 Norte 48 Norte 0 1013.1 0.6 67
2019-12-05 11:00:00 20.1 32 Noroeste 55 Norte 0 1013.5 1.3 69
2019-12-05 10:00:00 20.1 42 Norte 55 Norte 0 1013.2 1.7 70
2019-12-05 09:00:00 19.8 35 Norte 58 Norte 0 1012.5 1.1 65
2019-12-05 08:00:00 19.1 35 Noroeste 68 Noroeste 0 1012.2 0.8 65
2019-12-05 07:00:00 19.1 42 Noroeste 63 Norte 0 1011.5 -0.7 64
2019-12-05 06:00:00 19.6 34 Norte 65 Norte 0 1011.4 -0.9 63
2019-12-05 05:00:00 19.6 48 Norte 65 Norte 0 1011.4 -1.1 62
2019-12-05 04:00:00 19.2 39 Norte 68 Norte 0 1012.2 -0.6 68
2019-12-05 03:00:00 19.6 32 Norte 55 Norte 0 1012.3 -1.2 74
2019-12-05 02:00:00 18.5 41 Norte 58 Norte 0.7 1012.5 -1.7 90
2019-12-05 01:00:00 19.4 41 Norte 58 Noroeste 0.1 1012.8 -1.9 87
2019-12-05 00:00:00 19.2 32 Oeste 46 Noroeste 0 1013.5 -1.3 84
2019-12-04 23:00:00 19.3 28 Noroeste 45 Noroeste 0.9 1014.2 -0.3 84
2019-12-04 22:00:00 20.1 27 Noroeste 45 Oeste 0 1014.7 0.1 77
2019-12-04 21:00:00 20.5 29 Noroeste 41 Noroeste 0 1014.8 0.4 69
2019-12-04 20:00:00 20.4 28 Noroeste 42 Noroeste 0 1014.5 -0.2 69
2019-12-04 19:00:00 20.2 29 Noroeste 45 Norte 0 1014.6 0.3 67
2019-12-04 18:00:00 20.4 27 Noroeste 45 Noroeste 0 1014.4 -0.4 68
2019-12-04 17:00:00 21 29 Noroeste 41 Noroeste 0 1014.7 -0.8 60
2019-12-04 16:00:00 21.1 24 Norte 39 Norte 0 1014.3 -2.2 63
2019-12-04 15:00:00 21.8 20 Noroeste 32 Noroeste 0 1014.8 -2.5 58
2019-12-04 14:00:00 21.1 21 Noroeste 39 Noroeste 0 1015.5 -2.2 58
2019-12-04 13:00:00 21.1 21 Norte 32 Norte 0 1016.5 -0.9 67
2019-12-04 12:00:00 21.3 21 Norte 32 Norte 0 1017.3 0.4 64
2019-12-04 11:00:00 21 16 Norte 26 Norte 0 1017.7 1.3 65
2019-12-04 10:00:00 20.8 17 Noroeste 26 Norte 0 1017.4 1.5 61
2019-12-04 09:00:00 20 10 Noroeste 26 Noroeste 0 1016.9 1.4 62
2019-12-04 08:00:00 20 18 Norte 26 Norte 0 1016.4 1.1 67
2019-12-04 07:00:00 19.6 4 Noroeste 21 Norte 0 1015.9 0.4 67
2019-12-04 06:00:00 19.8 15 Norte 33 Nordeste 0 1015.5 -0.3 68
2019-12-04 05:00:00 19.9 24 Nordeste 30 Nordeste 0 1015.3 -0.7 71
2019-12-04 04:00:00 20.1 27 Norte 35 Nordeste 0 1015.5 -0.6 68
2019-12-04 03:00:00 20 23 Norte 32 Norte 0 1015.8 -0.8 70
2019-12-04 02:00:00 20 19 Norte 26 Norte 0 1016 -0.8 71
2019-12-04 01:00:00 19.9 18 Norte 30 Nordeste 0 1016.1 -0.4 67
2019-12-04 00:00:00 20.2 22 Norte 32 Norte 0 1016.6 0.2 71
2019-12-03 23:00:00 20.2 23 Norte 32 Norte 0 1016.8 1 69
2019-12-03 22:00:00 20.1 26 Norte 35 Nordeste 0 1016.5 1.4 71
2019-12-03 21:00:00 20.1 21 Norte 32 Norte 0 1016.4 1.7 70
2019-12-03 20:00:00 19.8 19 Norte 28 Nordeste 0 1015.8 1.3 72
2019-12-03 19:00:00 19.9 22 Norte 37 Nordeste 0 1015.1 0.8 70
2019-12-03 18:00:00 20.5 26 Norte 37 Norte 0 1014.7 0.6 68
2019-12-03 17:00:00 20.6 24 Norte 32 Norte 0 1014.5 0.2 66
2019-12-03 16:00:00 21 25 Norte 32 Norte 0 1014.3 0 65
2019-12-03 15:00:00 21 28 Norte 37 Norte 0 1014.1 -0.7 63
2019-12-03 14:00:00 21 24 Norte 41 Norte 0 1014.3 -0.6 66
2019-12-03 13:00:00 20.9 36 Norte 46 Nordeste 0 1014.3 -0.3 67
2019-12-03 12:00:00 20.9 32 Norte 41 Norte 0 1014.8 0.5 69
2019-12-03 11:00:00 21.6 33 Norte 41 Norte 0 1014.9 1.1 60
2019-12-03 10:00:00 21.1 35 Norte 42 Norte 0 1014.6 1 65
2019-12-03 09:00:00 20.6 29 Norte 46 Norte 0 1014.3 1.8 67
2019-12-03 08:00:00 20 35 Norte 48 Norte 0 1013.8 1.6 67
2019-12-03 07:00:00 18.3 34 Norte 58 Norte 0 1013.6 1.4 78
2019-12-03 06:00:00 19.6 34 Noroeste 52 Norte 0 1012.5 0.3 74
2019-12-03 05:00:00 20.1 32 Norte 45 Norte 0 1012.2 -0.5 68
2019-12-03 04:00:00 20 27 Norte 48 Norte 0 1012.2 -0.9 67
2019-12-03 03:00:00 20.1 33 Norte 46 Norte 0 1012.2 -1 68
2019-12-03 02:00:00 19.1 35 Norte 50 Norte 0 1012.7 -0.9 77
2019-12-03 01:00:00 19.9 33 Norte 48 Norte 0 1013.1 -0.5 74
2019-12-03 00:00:00 19.8 30 Noroeste 41 Noroeste 0 1013.2 -0.5 70
2019-12-02 23:00:00 20.1 27 Norte 42 Noroeste 0 1013.6 0.1 75
2019-12-02 22:00:00 19.9 32 Noroeste 50 Norte 0 1013.6 0.5 72
2019-12-02 21:00:00 20 22 Noroeste 39 Noroeste 0 1013.7 0.8 72
2019-12-02 20:00:00 20.4 27 Norte 41 Noroeste 0 1013.5 0.5 66
2019-12-02 19:00:00 20 29 Noroeste 42 Norte 0 1013.1 -0.1 67
2019-12-02 18:00:00 20.3 28 Noroeste 46 Norte 0 1012.9 -0.5 62
2019-12-02 17:00:00 20.5 30 Noroeste 42 Norte 0 1013 -0.7 68
2019-12-02 16:00:00 21 28 Noroeste 41 Noroeste 0 1013.2 -1.4 59
2019-12-02 15:00:00 20.7 31 Noroeste 46 Norte 0 1013.4 -2.1 64
2019-12-02 14:00:00 21 34 Norte 45 Norte 0 1013.7 -2.4 66
2019-12-02 13:00:00 20.9 33 Norte 41 Norte 0 1014.6 -1.4 68
2019-12-02 12:00:00 21.2 31 Norte 41 Norte 0 1015.5 -0.2 73
2019-12-02 11:00:00 21.9 28 Norte 41 Norte 0 1016.1 0.9 69
2019-12-02 10:00:00 21 30 Norte 41 Norte 0 1016 0.8 72
2019-12-02 09:00:00 21 20 Norte 32 Norte 0 1015.7 0.3 76
2019-12-02 08:00:00 19.8 19 Noroeste 30 Noroeste 0 1015.2 -0.5 72
2019-12-02 07:00:00 20.3 26 Norte 37 Norte 0 1015.2 -0.9 70
2019-12-02 06:00:00 20.2 25 Norte 37 Norte 0 1015.4 -0.9 73
2019-12-02 05:00:00 20.1 27 Norte 35 Norte 0 1015.7 -0.9 76
2019-12-02 04:00:00 20.3 26 Norte 35 Norte 0 1016.1 -0.7 75
2019-12-02 03:00:00 20.3 25 Norte 32 Norte 0 1016.3 -0.9 75
2019-12-02 02:00:00 20.2 25 Norte 35 Norte 0 1016.6 -0.6 75
2019-12-02 01:00:00 20.4 30 Norte 35 Norte 0 1016.8 -0.7 77
2019-12-02 00:00:00 20.5 23 Norte 33 Norte 0 1017.2 -0.4 78
2019-12-01 23:00:00 20.3 24 Norte 30 Norte 0 1017.2 -0.1 75
2019-12-01 22:00:00 20.5 22 Norte 30 Nordeste 0 1017.5 0.2 76
2019-12-01 21:00:00 20.7 20 Norte 35 Norte 0 1017.6 0.3 77
2019-12-01 20:00:00 20.6 27 Norte 39 Norte 0 1017.3 0.4 75
2019-12-01 19:00:00 20.7 31 Norte 39 Norte 0 1017.3 0.4 75
2019-12-01 18:00:00 20.7 30 Nordeste 37 Norte 0 1017.3 0.3 76
2019-12-01 17:00:00 20.8 27 Norte 35 Norte 0 1016.9 -0.3 79
2019-12-01 16:00:00 21.2 26 Norte 33 Norte 0 1016.9 -0.9 77
2019-12-01 15:00:00 21.7 21 Norte 37 Norte 0 1017 -1.8 76
2019-12-01 14:00:00 21.5 23 Norte 37 Norte 0 1017.2 -1.7 77
2019-12-01 13:00:00 21.8 28 Norte 41 Nordeste 0 1017.8 -0.7 77
2019-12-01 12:00:00 21.9 24 Norte 48 Nordeste 0 1018.8 0.6 76
2019-12-01 11:00:00 22.2 21 Norte 42 Norte 0 1018.9 1.4 75
2019-12-01 10:00:00 21.6 31 Norte 46 Norte 0 1018.5 1.4 77
2019-12-01 09:00:00 21.1 23 Norte 46 Nordeste 0 1018.2 1.5 79
2019-12-01 08:00:00 20.4 33 Norte 46 Norte 0 1017.5 1.3 81
2019-12-01 07:00:00 20.3 29 Norte 45 Norte 0 1017.1 0.5 81
2019-12-01 06:00:00 20.4 29 Norte 42 Norte 0 1016.7 -0.3 83
2019-12-01 05:00:00 20.5 26 Norte 42 Nordeste 0 1016.2 -1.1 83
2019-12-01 04:00:00 20.4 20 Noroeste 33 Noroeste 0 1016.6 -0.7 82
2019-12-01 03:00:00 20.6 19 Norte 39 Norte 0 1017 -0.4 82
2019-12-01 02:00:00 20.6 21 Noroeste 42 Norte 0 1017.3 -0.4 81
2019-12-01 01:00:00 20.7 20 Norte 41 Norte 0 1017.3 -0.2 83
2019-12-01 00:00:00 20.8 21 Norte 48 Norte 0 1017.4 0 84
2019-11-30 23:00:00 20.7 23 Norte 37 Norte 0 1017.7 0.5 85
2019-11-30 22:00:00 20.8 24 Norte 37 Norte 0 1017.5 0.7 85
2019-11-30 21:00:00 20.8 18 Norte 32 Norte 0 1017.4 0.9 85
2019-11-30 20:00:00 20.9 14 Noroeste 42 Norte 0 1017.2 1 86
2019-11-30 19:00:00 21 12 Noroeste 28 Nordeste 0 1016.8 0.8 85
2019-11-30 18:00:00 21.3 16 Norte 30 Norte 0 1016.5 0.5 84
2019-11-30 17:00:00 21.4 12 Norte 35 Norte 0 1016.2 -0.1 85
2019-11-30 16:00:00 21.4 18 Norte 32 Norte 0 1016 -0.9 84
2019-11-30 15:00:00 21.7 21 Norte 37 Nordeste 0 1016 -1.5 85
2019-11-30 14:00:00 22.2 16 Norte 28 Nordeste 0 1016.3 -1.4 82
2019-11-30 13:00:00 22.6 13 Norte 32 Nordeste 0 1016.9 -0.2 80
2019-11-30 12:00:00 22.9 11 Norte 30 Nordeste 0 1017.5 0.8 78
2019-11-30 11:00:00 22.6 12 Norte 22 Norte 0 1017.7 1.5 81
2019-11-30 10:00:00 21.9 9 Oeste 18 Norte 0 1017.1 1.5 81
2019-11-30 09:00:00 21.7 11 Norte 22 Norte 0 1016.7 1.7 84
2019-11-30 08:00:00 20.9 10 Noroeste 22 Norte 0 1016.2 1.1 85
2019-11-30 07:00:00 20.8 9 Noroeste 26 Noroeste 0 1015.6 0.6 86
2019-11-30 06:00:00 20.7 13 Noroeste 28 Norte 0 1015 -0.1 85
2019-11-30 05:00:00 20.8 14 Noroeste 28 Norte 0 1015.1 0 86
2019-11-30 04:00:00 20.8 16 Norte 28 Norte 0 1015 -0.1 86
2019-11-30 03:00:00 20.9 16 Noroeste 30 Noroeste 0 1015.1 -0.1 85
2019-11-30 02:00:00 20.9 13 Noroeste 28 Norte 0 1015.1 -0.2 85
2019-11-30 01:00:00 21 15 Noroeste 30 Norte 0 1015.1 0 85
2019-11-30 00:00:00 21.1 13 Noroeste 37 Noroeste 0 1015.2 0.7 84
2019-11-29 23:00:00 21 12 Noroeste 28 Oeste 0 1015.3 1.2 84
2019-11-29 22:00:00 21 15 Noroeste 41 Norte 0 1015.1 1.5 86
2019-11-29 21:00:00 21 28 Norte 39 Norte 0 1014.5 1.2 87
2019-11-29 20:00:00 21.1 23 Norte 41 Norte 0 1014.1 1.3 86
2019-11-29 19:00:00 21 26 Norte 41 Nordeste 0 1013.6 0.7 87
2019-11-29 18:00:00 21.1 29 Norte 46 Nordeste 0 1013.3 0.3 86
2019-11-29 17:00:00 21.2 31 Nordeste 41 Nordeste 0 1012.8 -0.8 86
2019-11-29 16:00:00 21.3 27 Norte 39 Nordeste 0 1012.9 -1.3 85
2019-11-29 15:00:00 21.4 25 Norte 39 Norte 0 1013 -1.6 83
2019-11-29 14:00:00 21.8 24 Norte 39 Norte 0 1013.6 -1.4 81
2019-11-29 13:00:00 22.2 27 Norte 37 Norte 0 1014.2 -0.5 79
2019-11-29 12:00:00 22.4 21 Norte 32 Nordeste 0 1014.6 0.9 79
2019-11-29 11:00:00 22.4 20 Norte 37 Norte 0 1015 1.7 77
2019-11-29 10:00:00 21.8 29 Norte 45 Norte 0 1014.7 1.8 78
2019-11-29 09:00:00 21.3 28 Norte 39 Norte 0 1013.7 0.9 80
2019-11-29 08:00:00 20.7 22 Norte 37 Norte 0 1013.3 0.5 82
2019-11-29 07:00:00 20.6 26 Norte 39 Norte 0 1012.9 -0.1 82
2019-11-29 06:00:00 20.6 24 Norte 37 Noroeste 0 1012.8 -0.4 81
2019-11-29 05:00:00 20.7 24 Norte 33 Noroeste 0 1012.8 -0.4 80
2019-11-29 04:00:00 20.7 22 Norte 35 Norte 0 1013 -0.2 80
2019-11-29 03:00:00 20.6 26 Noroeste 35 Norte 0 1013.2 0 80
2019-11-29 02:00:00 20.6 26 Noroeste 39 Noroeste 0 1013.2 -0.3 80
2019-11-29 01:00:00 20.6 26 Norte 35 Noroeste 0 1013.2 -0.1 81
2019-11-29 00:00:00 20.5 25 Norte 37 Norte 0 1013.2 0.2 82
2019-11-28 23:00:00 20.5 26 Norte 39 Norte 0 1013.5 0.8 82
2019-11-28 22:00:00 20.6 27 Norte 50 Norte 0 1013.3 1 81
2019-11-28 21:00:00 20.6 32 Norte 42 Norte 0 1013 0.8 81
2019-11-28 20:00:00 20.6 25 Norte 35 Norte 0 1012.7 0.6 79
2019-11-28 19:00:00 20.7 23 Norte 33 Norte 0 1012.3 0.4 78
2019-11-28 18:00:00 20.6 21 Noroeste 30 Noroeste 0 1012.2 0.2 75
2019-11-28 17:00:00 21 21 Norte 30 Norte 0 1012.1 -0.7 74
2019-11-28 16:00:00 21 20 Norte 30 Norte 0 1011.9 -1.8 75
2019-11-28 15:00:00 21.4 24 Norte 28 Norte 0 1012 -2.5 73
2019-11-28 14:00:00 21.2 15 Nordeste 18 Nordeste 0 1012.8 -1.9 73
2019-11-28 13:00:00 21.4 11 Este 21 Este 0 1013.7 -0.7 75
2019-11-28 12:00:00 21.9 12 Este 26 Sudeste 0 1014.5 0.2 73
2019-11-28 11:00:00 21.8 14 Este 21 Sudeste 0 1014.7 0.8 74
2019-11-28 10:00:00 21.1 16 Norte 32 Norte 0 1014.4 1.3 74
2019-11-28 09:00:00 20.8 19 Norte 26 Norte 0 1014.3 1.6 75
2019-11-28 08:00:00 20.4 20 Norte 30 Nordeste 0 1013.9 1.2 76
2019-11-28 07:00:00 20.2 27 Norte 37 Norte 0 1013.1 0.2 76
2019-11-28 06:00:00 20.2 23 Norte 32 Norte 0 1012.7 -0.5 76
2019-11-28 05:00:00 20.3 21 Norte 28 Norte 0 1012.7 -0.9 77
2019-11-28 04:00:00 20.3 18 Norte 26 Norte 0 1012.9 -0.9 75
2019-11-28 03:00:00 20.3 19 Norte 30 Norte 0 1013.2 -0.9 76
2019-11-28 02:00:00 20.4 22 Norte 30 Norte 0 1013.6 -0.8 77
2019-11-28 01:00:00 20.5 23 Norte 30 Norte 0 1013.8 -0.4 77
2019-11-28 00:00:00 20.5 24 Norte 33 Norte 0 1014.1 0 77
2019-11-27 23:00:00 20.6 25 Norte 33 Norte 0 1014.4 0.6 77
2019-11-27 22:00:00 20.6 29 Norte 35 Norte 0 1014.2 0.7 77
2019-11-27 21:00:00 20.7 28 Norte 35 Norte 0 1014.1 1.1 78
2019-11-27 20:00:00 20.7 27 Norte 33 Norte 0 1013.8 0.7 76
2019-11-27 19:00:00 20.7 26 Norte 33 Norte 0 1013.5 0.4 78
2019-11-27 18:00:00 20.9 26 Norte 32 Norte 0 1013 -0.2 75
2019-11-27 17:00:00 21.4 19 Norte 24 Norte 0 1013.1 -0.5 71
2019-11-27 16:00:00 21.9 17 Norte 26 Norte 0 1013.1 -1.4 67
2019-11-27 15:00:00 21.9 23 Norte 30 Norte 0 1013.2 -2.1 68
2019-11-27 14:00:00 21.7 24 Norte 30 Norte 0 1013.6 -2.1 70
2019-11-27 13:00:00 21.9 22 Norte 33 Norte 0 1014.5 -1 69
2019-11-27 05:00:00 20.8 24 Norte 30 Norte 0 1013.3 -0.7 75
2019-11-27 04:00:00 20.7 24 Norte 33 Norte 0 1013.6 -1 75
2019-11-27 03:00:00 20.7 28 Norte 33 Norte 0 1013.7 -1.5 77
2019-11-27 02:00:00 20.6 19 Norte 24 Norte 0 1014 -1.2 78
2019-11-27 01:00:00 20.8 18 Norte 24 Norte 0 1014.6 -0.5 77
2019-11-27 00:00:00 20.7 20 Norte 26 Norte 0 1015.2 0.3 77
2019-11-26 23:00:00 20.6 19 Norte 28 Norte 0 1015.2 0.7 77
2019-11-26 22:00:00 20.8 19 Norte 26 Norte 0 1015.1 1.1 76
2019-11-26 21:00:00 20.6 22 Norte 32 Norte 0 1014.9 1.1 76
2019-11-26 20:00:00 20.7 27 Norte 33 Norte 0 1014.5 0.8 76
2019-11-26 19:00:00 20.8 27 Norte 33 Norte 0 1014 0.3 77
2019-11-26 18:00:00 20.9 21 Norte 28 Norte 0 1013.8 -0.1 72
2019-11-26 17:00:00 21.3 20 Norte 28 Noroeste 0 1013.7 -0.6 70
2019-11-26 16:00:00 22.1 18 Norte 26 Norte 0 1013.7 -1.4 70
2019-11-26 15:00:00 22.6 17 Norte 26 Norte 0 1013.9 -2 67
2019-11-26 14:00:00 23.1 15 Norte 21 Norte 0 1014.3 -1.9 64
2019-11-26 13:00:00 23.1 14 Norte 18 Norte 0 1015.1 -0.8 64
2019-11-26 12:00:00 22.5 11 Norte 18 Norte 0 1015.9 0.6 67
2019-11-26 11:00:00 21.3 12 Norte 17 Norte 0 1016.2 1.4 75
2019-11-26 10:00:00 21 3 Sudeste 15 Sudoeste 0 1015.9 1.4 67
2019-11-26 09:00:00 20.6 8 Sur 13 Sudoeste 0 1015.3 1.3 68
2019-11-26 08:00:00 19.9 11 Sur 13 Sur 0 1014.8 1.1 72
2019-11-26 07:00:00 20.4 6 Este 24 Norte 0 1014.5 0.2 72
2019-11-26 06:00:00 20.5 23 Norte 35 Norte 0 1014 -0.7 72
2019-11-26 05:00:00 20.4 26 Norte 33 Norte 0 1013.7 -1.1 77
2019-11-26 04:00:00 20.4 22 Norte 30 Norte 0 1014.3 -1 76
2019-11-26 03:00:00 20.8 22 Norte 33 Norte 0 1014.7 -1.3 74
2019-11-26 02:00:00 20.8 21 Norte 32 Norte 0 1014.8 -1.3 71
2019-11-26 01:00:00 20.7 17 Norte 26 Norte 0 1015.3 -1 70
2019-11-26 00:00:00 20.6 14 Norte 24 Norte 0 1016 -0.3 69
2019-11-25 23:00:00 20.5 18 Norte 26 Norte 0 1016.1 0.4 73
2019-11-25 22:00:00 20.5 23 Norte 32 Norte 0 1016.3 0.6 72
2019-11-25 21:00:00 20.4 23 Norte 30 Norte 0 1016.3 1 69
2019-11-25 20:00:00 20.4 19 Norte 30 Norte 0 1015.7 0.4 67
2019-11-25 19:00:00 20.4 16 Noroeste 24 Norte 0 1015.7 0.3 66
2019-11-25 18:00:00 20.7 18 Norte 24 Norte 0 1015.3 -0.4 66
2019-11-25 17:00:00 21 17 Norte 24 Norte 0 1015.3 -0.7 67
2019-11-25 16:00:00 21.3 18 Norte 26 Norte 0 1015.4 -1.4 67
2019-11-25 15:00:00 21.8 17 Norte 28 Norte 0 1015.7 -1.8 65
2019-11-25 14:00:00 21.6 22 Norte 30 Norte 0 1016 -1.7 65
2019-11-25 13:00:00 21.8 22 Norte 28 Norte 0 1016.8 -0.7 66
2019-11-25 12:00:00 21.7 17 Noroeste 26 Noroeste 0 1017.5 0.3 59
2019-11-25 11:00:00 21.1 25 Norte 35 Norte 0 1017.7 1.4 64
2019-11-25 10:00:00 21 14 Noroeste 22 Norte 0 1017.5 2 62
2019-11-25 09:00:00 20.5 21 Norte 30 Norte 0 1017.2 2 65
2019-11-25 08:00:00 20.2 27 Norte 35 Norte 0 1016.3 0.9 66
2019-11-25 07:00:00 20.2 24 Norte 37 Norte 0 1015.5 -0.2 68
2019-11-25 06:00:00 20.5 26 Norte 32 Norte 0 1015.2 -0.7 69
2019-11-25 05:00:00 20.2 23 Norte 32 Norte 0 1015.4 -1 69
2019-11-25 04:00:00 20.3 26 Norte 37 Norte 0 1015.7 -1 70
2019-11-25 03:00:00 20.6 23 Norte 32 Norte 0 1015.9 -1 74
2019-11-25 02:00:00 20.7 19 Norte 28 Nordeste 0 1016.4 -0.5 72
2019-11-25 01:00:00 20.9 17 Nordeste 30 Norte 0 1016.7 0.2 76
2019-11-25 00:00:00 21 24 Norte 35 Norte 0 1016.9 0.4 74
2019-11-24 23:00:00 20.8 20 Norte 33 Norte 0 1016.9 0.8 78
2019-11-24 22:00:00 20.8 25 Norte 33 Norte 0 1016.5 1 76
2019-11-24 21:00:00 20.9 20 Norte 26 Norte 0 1016.5 1.4 79
2019-11-24 20:00:00 21 21 Nordeste 30 Nordeste 0 1016.1 0.8 78
2019-11-24 19:00:00 21 27 Nordeste 37 Norte 0 1015.5 0.3 82
2019-11-24 18:00:00 21.1 28 Norte 37 Norte 0 1015.1 -0.3 82
2019-11-24 17:00:00 21.4 20 Norte 26 Norte 0 1015.3 -0.7 79
2019-11-24 16:00:00 21.8 17 Norte 22 Norte 0 1015.2 -1.5 78
2019-11-24 15:00:00 21.9 17 Norte 22 Norte 0 1015.4 -2.3 78
2019-11-24 14:00:00 22.3 14 Norte 24 Norte 0 1016 -2 79
2019-11-24 13:00:00 22.2 17 Norte 24 Norte 0 1016.7 -0.9 78
2019-11-24 12:00:00 22.6 18 Norte 26 Norte 0 1017.7 0.8 76
2019-11-24 11:00:00 23 16 Norte 22 Norte 0 1018 1.5 75
2019-11-24 10:00:00 21.9 14 Noroeste 22 Noroeste 0 1017.6 1.6 77
2019-11-24 09:00:00 20.9 16 Noroeste 26 Norte 0 1016.9 1.5 84
2019-11-24 08:00:00 20.6 15 Noroeste 33 Norte 0 1016.5 1.1 78
2019-11-24 07:00:00 20.2 25 Norte 35 Norte 0 1016 0.3 85
2019-11-24 06:00:00 20.9 26 Norte 33 Norte 0 1015.4 -0.5 86
2019-11-24 05:00:00 20.7 17 Norte 22 Norte 0 1015.4 -0.8 86
2019-11-24 04:00:00 20.9 15 Norte 24 Norte 0 1015.7 -0.8 86
2019-11-24 03:00:00 20.9 17 Norte 26 Norte 0 1015.9 -1.2 86
2019-11-24 02:00:00 20.8 20 Norte 30 Norte 0 1016.2 -1.1 87
2019-11-24 01:00:00 21.1 21 Norte 30 Norte 0 1016.5 -0.7 87
2019-11-24 00:00:00 21.1 15 Noroeste 28 Norte 0 1017.1 0.4 87
2019-11-23 23:00:00 21.2 18 Norte 30 Norte 0 1017.3 1 86
2019-11-23 22:00:00 21.3 19 Norte 26 Norte 0 1017.2 1.5 86
2019-11-23 21:00:00 21.3 23 Norte 28 Norte 0 1016.7 1.2 86
2019-11-23 20:00:00 21.4 17 Norte 28 Norte 0 1016.3 1.2 86
2019-11-23 19:00:00 21.6 18 Norte 26 Norte 0 1015.7 0.9 86
2019-11-23 18:00:00 21.9 17 Norte 24 Norte 0 1015.5 0.7 84
2019-11-23 17:00:00 22.2 17 Noroeste 28 Norte 0 1015.1 0 81
2019-11-23 16:00:00 23.5 19 Noroeste 33 Norte 0 1014.8 -1.2 74
2019-11-23 15:00:00 23.6 21 Noroeste 37 Noroeste 0 1014.8 -1.8 72
2019-11-23 14:00:00 23.9 23 Oeste 37 Oeste 0 1015.1 -2 68
2019-11-23 13:00:00 23.6 25 Noroeste 33 Noroeste 0 1016 -0.9 74
2019-11-23 12:00:00 23.6 21 Noroeste 33 Noroeste 0 1016.6 0.4 73
2019-11-23 11:00:00 22.8 19 Noroeste 26 Norte 0 1017.1 1.7 80
2019-11-23 10:00:00 22.2 14 Noroeste 28 Noroeste 0 1016.9 1.8 83
2019-11-23 09:00:00 21.5 15 Noroeste 33 Noroeste 0 1016.2 1.4 81
2019-11-23 08:00:00 21.4 23 Noroeste 35 Noroeste 0 1015.4 0.8 80
2019-11-23 07:00:00 20.8 18 Noroeste 32 Noroeste 0 1015.1 0.3 86
2019-11-23 06:00:00 21.5 18 Noroeste 30 Noroeste 0 1014.8 -0.2 80
2019-11-23 05:00:00 21.5 20 Noroeste 30 Noroeste 0 1014.6 -0.5 81
2019-11-23 04:00:00 21 20 Noroeste 28 Noroeste 0.2 1014.8 -0.4 86
2019-11-23 03:00:00 21.8 14 Noroeste 30 Oeste 0 1015 -0.1 78
2019-11-23 02:00:00 22 17 Oeste 30 Noroeste 0 1015.1 -0.2 76
2019-11-23 01:00:00 21.9 17 Oeste 41 Noroeste 0 1015.2 0.2 76
2019-11-23 00:00:00 22 24 Noroeste 37 Noroeste 0 1015.1 0.4 75
2019-11-22 23:00:00 22.1 21 Noroeste 39 Noroeste 0 1015.3 1.1 73
2019-11-22 22:00:00 22 14 Noroeste 33 Noroeste 0 1015 1.4 72
2019-11-22 21:00:00 22.8 11 Noroeste 33 Oeste 0 1014.7 1.6 66
2019-11-22 20:00:00 21.7 21 Oeste 33 Oeste 0 1014.2 1.3 72
2019-11-22 19:00:00 22.4 16 Noroeste 32 Noroeste 0 1013.6 0.8 68
2019-11-22 18:00:00 22.9 17 Noroeste 37 Noroeste 0 1013.1 0 66
2019-11-22 17:00:00 23.6 18 Noroeste 37 Noroeste 0 1012.9 -0.2 62
2019-11-22 16:00:00 23.7 22 Norte 33 Noroeste 0 1012.8 -1.2 62
2019-11-22 15:00:00 24.2 21 Noroeste 42 Noroeste 0 1013.1 -1.5 59
2019-11-22 14:00:00 23.9 24 Noroeste 42 Noroeste 0 1013.1 -1.5 58
2019-11-22 13:00:00 23.7 22 Noroeste 39 Noroeste 0 1014 -0.4 58
2019-11-22 12:00:00 23 20 Noroeste 33 Norte 0 1014.6 0.7 62
2019-11-22 11:00:00 22.3 23 Norte 32 Norte 0 1014.6 1.7 66
2019-11-22 10:00:00 21.7 27 Norte 33 Norte 0 1014.4 2.1 70
2019-11-22 09:00:00 21.5 15 Noroeste 37 Oeste 0 1013.9 2 74
2019-11-22 08:00:00 21.1 26 Oeste 42 Noroeste 0 1012.9 1 69
2019-11-22 07:00:00 21 28 Noroeste 39 Noroeste 0 1012.3 0.4 72
2019-11-22 06:00:00 20.9 18 Noroeste 33 Noroeste 0 1011.9 -0.2 77
2019-11-22 05:00:00 20.8 21 Noroeste 33 Noroeste 0 1011.9 -0.4 79
2019-11-22 04:00:00 20.4 22 Oeste 33 Oeste 0 1011.9 -0.8 84
2019-11-22 03:00:00 20.7 19 Noroeste 32 Oeste 0.1 1012.1 -0.3 84
2019-11-22 02:00:00 20.8 18 Noroeste 33 Noroeste 0 1012.3 -0.2 84
2019-11-22 01:00:00 20.6 19 Oeste 41 Noroeste 0 1012.7 0.1 83
2019-11-22 00:00:00 21.8 15 Oeste 37 Noroeste 0 1012.4 0 74
2019-11-21 23:00:00 21.6 15 Noroeste 28 Noroeste 0 1012.5 0.5 74
2019-11-21 22:00:00 20.6 9 Oeste 17 Oeste 0 1012.6 1 74
2019-11-21 21:00:00 20.8 5 Oeste 13 Sudoeste 0 1012.4 1 74
2019-11-21 20:00:00 21.6 8 Sudoeste 17 Sudeste 0 1012 0.7 72
2019-11-21 19:00:00 22 8 Noroeste 24 Oeste 0 1011.6 0.6 70
2019-11-21 18:00:00 22.9 6 Sudoeste 32 Sudoeste 0 1011.4 0.1 64
2019-11-21 17:00:00 23 13 Oeste 35 Noroeste 0 1011.3 -0.7 64
2019-11-21 16:00:00 23.9 13 Noroeste 35 Oeste 0 1011 -1.9 60
2019-11-21 15:00:00 22 8 Este 21 Sur 0 1011.3 -1.9 67
2019-11-21 14:00:00 22.3 12 Este 26 Oeste 0 1012 -1.9 64
2019-11-21 13:00:00 23.5 6 Este 39 Sudoeste 0 1012.9 -0.8 61
2019-11-21 12:00:00 23.3 13 Noroeste 41 Norte 0 1013.2 -0.2 56
2019-11-21 11:00:00 22.6 17 Oeste 41 Noroeste 0 1013.9 0.9 56
2019-11-21 10:00:00 21.8 22 Noroeste 39 Oeste 0 1013.7 1.3 61
2019-11-21 09:00:00 21.2 15 Oeste 35 Oeste 0 1013.4 1.3 62
2019-11-21 08:00:00 19.6 19 Noroeste 45 Noroeste 0 1013 0.6 70
2019-11-21 07:00:00 -- -- -- -- -- -- -- -- --
2019-11-21 06:00:00 -- -- -- -- -- -- -- -- --
2019-11-21 05:00:00 -- -- -- -- -- -- -- -- --
2019-11-21 04:00:00 -- -- -- -- -- -- -- -- --
2019-11-21 03:00:00 -- -- -- -- -- -- -- -- --
2019-11-21 02:00:00 -- -- -- -- -- -- -- -- --
2019-11-21 01:00:00 -- -- -- -- -- -- -- -- --
2019-11-21 00:00:00 -- -- -- -- -- -- -- -- --
2019-11-20 23:00:00 -- -- -- -- -- -- -- -- --
2019-11-20 22:00:00 -- -- -- -- -- -- -- -- --
2019-11-20 21:00:00 -- -- -- -- -- -- -- -- --
2019-11-20 20:00:00 -- -- -- -- -- -- -- -- --
2019-11-20 19:00:00 -- -- -- -- -- -- -- -- --
2019-11-20 18:00:00 21.8 19 Noroeste 30 Noroeste 0 1013.1 0.1 75
2019-11-20 17:00:00 22.3 10 Sudeste 17 Sudeste 0 1012.7 -0.8 67
2019-11-20 16:00:00 21.8 8 Este 17 Sudeste 0 1012.7 -1.7 68
2019-11-20 15:00:00 21.9 12 Este 21 Este 0 1013 -1.9 65
2019-11-20 14:00:00 21.7 14 Este 22 Este 0 1013.5 -2 66
2019-11-20 13:00:00 22.4 10 Este 18 Este 0 1014.4 -1.1 65
2019-11-20 12:00:00 22.5 11 Este 21 Sudeste 0 1014.9 -0.2 61
2019-11-20 11:00:00 22 12 Este 18 Sudeste 0 1015.5 0.7 65
2019-11-20 10:00:00 22.6 9 Sudeste 18 Sur 0 1015.5 1 62
2019-11-20 09:00:00 21.1 12 Sudeste 18 Sur 0 1015.1 0.8 66
2019-11-20 08:00:00 19 9 Sudoeste 22 Sudoeste 0 1014.8 0.3 68
2019-11-20 07:00:00 18.9 17 Sudoeste 24 Sudoeste 0 1014.5 -0.2 67
2019-11-20 06:00:00 18.4 11 Oeste 22 Oeste 0 1014.3 -0.5 69
2019-11-20 05:00:00 19.7 12 Oeste 26 Oeste 0 1014.5 -0.6 73
2019-11-20 04:00:00 19.9 13 Oeste 24 Noroeste 0 1014.7 -0.9 70
2019-11-20 03:00:00 19.7 13 Oeste 22 Oeste 0 1014.8 -1 65
2019-11-20 02:00:00 19.4 14 Oeste 28 Oeste 0 1015.1 -0.9 69
2019-11-20 01:00:00 19.9 13 Noroeste 28 Oeste 0 1015.6 -0.5 67
2019-11-20 00:00:00 19.9 14 Noroeste 28 Oeste 0 1015.8 -0.2 71
2019-11-19 23:00:00 19.9 14 Oeste 24 Noroeste 0 1016 0.4 75
2019-11-19 22:00:00 19.6 17 Oeste 28 Noroeste 0 1016.1 0.6 73
2019-11-19 21:00:00 20.2 18 Noroeste 28 Noroeste 0 1016 0.8 73
2019-11-19 20:00:00 20.3 19 Noroeste 28 Noroeste 0 1015.6 0.3 70
2019-11-19 19:00:00 20.5 21 Noroeste 33 Oeste 0 1015.5 0.1 69
2019-11-19 18:00:00 20.7 17 Noroeste 35 Noroeste 0 1015.2 -0.4 66
2019-11-19 17:00:00 21.1 22 Noroeste 32 Noroeste 0 1015.3 -0.9 65
2019-11-19 16:00:00 21.5 23 Noroeste 30 Norte 0 1015.4 -1.6 65
2019-11-19 15:00:00 21.6 21 Norte 33 Norte 0 1015.6 -2.3 65
2019-11-19 14:00:00 22.2 21 Norte 33 Noroeste 0 1016.2 -2.2 60
2019-11-19 13:00:00 22.4 18 Noroeste 28 Noroeste 0 1017 -1.1 62
2019-11-19 12:00:00 22.3 17 Norte 26 Norte 0 1017.9 0.3 65
2019-11-19 11:00:00 21.7 20 Norte 30 Norte 0 1018.4 0.8 64
2019-11-19 10:00:00 21.2 21 Noroeste 32 Noroeste 0 1018.1 0.8 70
2019-11-19 09:00:00 20.8 13 Noroeste 24 Noroeste 0 1017.6 0.7 67
2019-11-19 08:00:00 19.8 10 Noroeste 18 Norte 0 1017.6 0.7 73
2019-11-19 07:00:00 20 13 Norte 22 Nordeste 0 1017.3 0.1 72
2019-11-19 06:00:00 20.1 15 Norte 24 Nordeste 0 1016.9 -0.6 73
2019-11-19 05:00:00 19.7 11 Norte 21 Norte 0 1016.9 -0.9 75
2019-11-19 04:00:00 19.9 11 Norte 22 Nordeste 0 1017.2 -1.1 74
2019-11-19 03:00:00 20.1 16 Norte 24 Nordeste 0 1017.5 -1.3 73
2019-11-19 02:00:00 19.8 12 Norte 22 Norte 0 1017.8 -0.9 73
2019-11-19 01:00:00 20.1 14 Norte 28 Norte 0 1018.3 -0.3 72
2019-11-19 00:00:00 20.1 21 Norte 33 Norte 0 1018.8 0.5 71
2019-11-18 23:00:00 20.3 27 Norte 39 Norte 0 1018.7 0.9 71
2019-11-18 22:00:00 20.3 30 Norte 39 Norte 0 1018.6 1.1 72
2019-11-18 21:00:00 20.4 30 Norte 41 Norte 0 1018.3 0.8 71
2019-11-18 20:00:00 20.5 34 Norte 45 Norte 0 1017.8 0.4 73
2019-11-18 19:00:00 20.6 35 Nordeste 45 Nordeste 0 1017.5 0.3 74
2019-11-18 18:00:00 20.6 28 Nordeste 39 Norte 0 1017.5 0.2 75
2019-11-18 17:00:00 20.7 29 Norte 37 Norte 0 1017.4 -0.2 75
2019-11-18 16:00:00 20.9 27 Norte 37 Norte 0 1017.2 -1 75
2019-11-18 15:00:00 21.5 22 Norte 32 Norte 0 1017.3 -1.5 74
2019-11-18 14:00:00 21.5 21 Norte 33 Nordeste 0 1017.6 -1.8 66
2019-11-18 13:00:00 21.7 26 Nordeste 37 Norte 0 1018.2 -0.9 66
2019-11-18 12:00:00 21.7 27 Norte 35 Norte 0 1018.8 0.1 69
2019-11-18 11:00:00 21.1 26 Nordeste 39 Nordeste 0 1019.4 1.2 68
2019-11-18 10:00:00 21.2 30 Nordeste 45 Nordeste 0 1019.1 1.3 69
2019-11-18 09:00:00 20.9 33 Nordeste 48 Nordeste 0 1018.7 1.1 71
2019-11-18 08:00:00 20.2 31 Norte 42 Norte 0 1018.2 0.9 73
2019-11-18 07:00:00 20 30 Norte 41 Nordeste 0 1017.8 0.5 72
2019-11-18 06:00:00 20 33 Norte 45 Norte 0 1017.6 -0.3 74
2019-11-18 05:00:00 20.2 33 Norte 46 Norte 0 1017.3 -0.4 74
2019-11-18 04:00:00 20.1 24 Norte 39 Norte 0 1017.3 -1 73
2019-11-18 03:00:00 20.1 26 Norte 45 Norte 0 1017.9 -0.9 71
2019-11-18 02:00:00 19.8 34 Norte 46 Norte 0 1017.7 -0.9 72
2019-11-18 01:00:00 19.3 24 Norte 45 Norte 0 1018.3 -0.4 79
2019-11-18 00:00:00 19.8 32 Norte 59 Nordeste 0 1018.8 0.3 76
2019-11-17 23:00:00 20.1 35 Nordeste 46 Nordeste 0 1018.6 0.7 74
2019-11-17 22:00:00 20 36 Norte 46 Nordeste 0 1018.7 1.2 72
2019-11-17 21:00:00 20.1 34 Norte 46 Nordeste 0 1018.5 1.4 70
2019-11-17 20:00:00 19.9 33 Norte 45 Norte 0 1017.9 0.8 76
2019-11-17 19:00:00 20.1 33 Norte 42 Nordeste 0 1017.5 0.4 75
2019-11-17 18:00:00 20.3 27 Norte 41 Nordeste 0 1017.1 0 70
2019-11-17 17:00:00 20.5 30 Norte 41 Nordeste 0 1017.1 -0.7 71
2019-11-17 16:00:00 20.1 26 Norte 46 Nordeste 0 1017.1 -1.2 75
2019-11-17 15:00:00 20.6 30 Norte 48 Nordeste 0 1017.1 -2.1 69
2019-11-17 14:00:00 19.9 20 Norte 46 Nordeste 0 1017.8 -1.8 75
2019-11-17 13:00:00 20.8 32 Norte 45 Nordeste 0 1018.3 -1 70
2019-11-17 12:00:00 20.5 33 Nordeste 41 Nordeste 0 1019.2 0.5 71
2019-11-17 11:00:00 20.5 33 Nordeste 45 Nordeste 0 1019.6 1.4 71
2019-11-17 10:00:00 19.6 20 Norte 55 Nordeste 0 1019.3 1.3 77
2019-11-17 09:00:00 19.8 35 Nordeste 50 Nordeste 0 1018.7 1.4 74
2019-11-17 08:00:00 19.8 35 Norte 54 Norte 0 1018.2 0.8 76
2019-11-17 07:00:00 19.6 40 Norte 48 Norte 0 1018 0.7 79
2019-11-17 06:00:00 19.7 33 Nordeste 50 Nordeste 0 1017.3 -0.3 74
2019-11-17 05:00:00 19.4 26 Norte 46 Nordeste 0 1017.4 -0.2 78
2019-11-17 04:00:00 19.8 29 Norte 61 Nordeste 0 1017.3 -0.4 74
2019-11-17 03:00:00 19.5 13 Norte 52 Nordeste 0 1017.6 -0.4 73
2019-11-17 02:00:00 20.4 31 Norte 42 Nordeste 0 1017.6 0 69
2019-11-17 01:00:00 20.3 33 Norte 45 Nordeste 0 1017.7 0.3 70
2019-11-17 00:00:00 20.3 33 Norte 50 Norte 0 1018 0.6 68
2019-11-16 23:00:00 20.1 40 Norte 54 Norte 0 1017.6 0.6 68
2019-11-16 22:00:00 20.3 38 Norte 52 Norte 0 1017.4 0.7 75
2019-11-16 21:00:00 19.9 31 Norte 48 Nordeste 0 1017.4 1.4 78
2019-11-16 20:00:00 20.2 36 Norte 48 Norte 0 1017 1.2 75
2019-11-16 19:00:00 20.2 39 Norte 59 Norte 0 1016.7 1 78
2019-11-16 18:00:00 20.5 45 Norte 55 Nordeste 0 1016 -0.1 73
2019-11-16 17:00:00 20.4 36 Norte 50 Norte 0 1015.8 -0.7 71
2019-11-16 16:00:00 20.6 35 Norte 45 Norte 0 1015.7 -1.2 73
2019-11-16 15:00:00 20.7 36 Norte 46 Norte 0 1016.1 -1.6 70
2019-11-16 14:00:00 20.8 34 Norte 50 Norte 0 1016.5 -1.6 67
2019-11-16 13:00:00 21.2 33 Norte 45 Norte 0 1016.9 -1.1 69
2019-11-16 12:00:00 21 44 Norte 52 Norte 0 1017.7 0.4 69
2019-11-16 11:00:00 20.8 33 Norte 50 Norte 0 1018.1 1.3 71
2019-11-16 10:00:00 21 36 Norte 50 Norte 0 1018 1.9 61
2019-11-16 09:00:00 20.4 37 Norte 52 Nordeste 0 1017.3 1.5 68
2019-11-16 08:00:00 19.5 36 Norte 55 Nordeste 0 1016.8 1 77
2019-11-16 07:00:00 19.5 38 Norte 50 Nordeste 0 1016.1 0.5 75
2019-11-16 06:00:00 19.6 34 Norte 50 Nordeste 0 1015.8 0.2 76
2019-11-16 05:00:00 19.5 33 Norte 55 Nordeste 0 1015.8 0.2 75
2019-11-16 04:00:00 19.8 34 Norte 48 Norte 0 1015.6 -0.1 73
2019-11-16 03:00:00 20 41 Norte 50 Norte 0 1015.6 -0.2 72
2019-11-16 02:00:00 20.1 39 Norte 50 Nordeste 0 1015.6 -0.1 72
2019-11-16 01:00:00 20.2 37 Norte 50 Norte 0 1015.7 0.1 72
2019-11-16 00:00:00 20.2 38 Norte 50 Norte 0 1015.8 0.8 70
2019-11-15 23:00:00 20.3 39 Nordeste 48 Norte 0 1015.7 1.1 66
2019-11-15 22:00:00 20.4 34 Norte 46 Nordeste 0 1015.6 1.5 68
2019-11-15 21:00:00 20.3 37 Norte 54 Nordeste 0 1015 1.3 68
2019-11-15 20:00:00 20.4 38 Norte 50 Nordeste 0 1014.6 0.8 67
2019-11-15 19:00:00 20.5 39 Norte 50 Nordeste 0 1014.1 0.6 68
2019-11-15 18:00:00 20.5 41 Norte 52 Nordeste 0 1013.7 -0.3 70
2019-11-15 17:00:00 20.7 40 Norte 54 Norte 0 1013.8 -0.7 72
2019-11-15 16:00:00 21.1 35 Norte 46 Norte 0 1013.5 -1.5 71
2019-11-15 15:00:00 21.2 31 Norte 45 Nordeste 0 1014 -1.7 70
2019-11-15 14:00:00 20.1 28 Norte 58 Norte 0.1 1014.5 -1.7 81
2019-11-15 13:00:00 21.5 35 Norte 50 Norte 0 1015 -0.9 73
2019-11-15 12:00:00 21.3 37 Norte 48 Norte 0 1015.7 0.3 75
2019-11-15 11:00:00 20.5 30 Norte 59 Norte 0 1016.2 1.5 78
2019-11-15 10:00:00 19.6 46 Norte 67 Norte 0.1 1015.9 1.6 84
2019-11-15 09:00:00 20.9 30 Norte 48 Norte 0 1015.4 1.3 75
2019-11-15 08:00:00 21.2 33 Norte 46 Norte 0 1014.7 0.8 71
2019-11-15 07:00:00 21.1 35 Norte 48 Norte 0 1014.3 0.3 70
2019-11-15 06:00:00 21 35 Norte 48 Nordeste 0 1014.1 -0.3 72
2019-11-15 05:00:00 21.1 39 Norte 52 Norte 0 1013.9 -0.8 67
2019-11-15 04:00:00 21.1 40 Norte 55 Norte 0 1014 -0.9 70
2019-11-15 03:00:00 20.9 42 Norte 55 Norte 0 1014.4 -0.6 73
2019-11-15 02:00:00 21.2 40 Nordeste 58 Nordeste 0 1014.7 -0.4 74
2019-11-15 01:00:00 20.9 42 Norte 59 Norte 0 1014.9 0.2 78
2019-11-15 00:00:00 21.3 42 Norte 54 Nordeste 0 1015 0.8 74
2019-11-14 23:00:00 21.4 34 Nordeste 55 Norte 0 1015.1 1.1 71
2019-11-14 22:00:00 21.2 37 Norte 48 Nordeste 0 1014.7 1.1 77
2019-11-14 21:00:00 21.1 28 Norte 42 Norte 0 1014.2 0.7 79
2019-11-14 20:00:00 21.3 33 Norte 46 Nordeste 0 1014 0.6 76
2019-11-14 19:00:00 21.4 35 Norte 48 Norte 0 1013.6 0.1 77
2019-11-14 18:00:00 21.3 34 Norte 45 Norte 0 1013.5 -0.2 77
2019-11-14 17:00:00 21.4 31 Norte 42 Norte 0 1013.4 -0.6 81
2019-11-14 16:00:00 22 30 Norte 35 Norte 0 1013.5 -1.1 74
2019-11-14 15:00:00 22 29 Norte 41 Norte 0 1013.7 -1.7 71
2019-11-14 14:00:00 22.1 29 Norte 37 Norte 0 1014 -1.8 70
2019-11-14 13:00:00 21.8 21 Norte 48 Nordeste 0 1014.6 -0.8 77
2019-11-14 12:00:00 21.6 27 Nordeste 37 Nordeste 0 1015.4 0.3 75
2019-11-14 11:00:00 21.7 32 Norte 42 Norte 0 1015.8 1.4 78
2019-11-14 10:00:00 21.4 28 Norte 41 Norte 0 1015.4 1.5 77
2019-11-14 09:00:00 21.2 16 Nordeste 32 Nordeste 0 1015.1 1.7 75
2019-11-14 08:00:00 21.5 27 Nordeste 41 Norte 0 1014.4 1.1 70
2019-11-14 07:00:00 21 28 Norte 45 Norte 0 1013.9 1 76
2019-11-14 06:00:00 21.1 26 Norte 41 Norte 0 1013.4 -0.7 77
2019-11-14 05:00:00 21.2 35 Norte 45 Norte 0 1013.3 -0.8 76
2019-11-14 04:00:00 21.3 36 Norte 46 Norte 0 1012.9 -2.1 74
2019-11-14 03:00:00 21.4 27 Norte 45 Norte 0 1014.1 -1.2 70
2019-11-14 02:00:00 21.3 33 Norte 45 Norte 0 1014.1 -1 71
2019-11-14 01:00:00 21 35 Norte 50 Norte 0 1015 -0.4 69
2019-11-14 00:00:00 21.6 32 Norte 52 Nordeste 0 1015.3 0 70
2019-11-13 23:00:00 21.2 39 Norte 52 Norte 0 1015.1 0.3 71
2019-11-13 22:00:00 21.1 33 Norte 46 Norte 0 1015.4 1 70
2019-11-13 21:00:00 21.2 35 Norte 46 Norte 0 1015.3 0.6 67
2019-11-13 20:00:00 21.3 36 Norte 48 Norte 0 1014.8 0.1 74
2019-11-13 19:00:00 21.3 37 Norte 52 Norte 0 1014.4 -0.3 73
2019-11-13 18:00:00 21.4 35 Norte 52 Norte 0 1014.7 -0.1 75
2019-11-13 17:00:00 21.8 36 Norte 46 Norte 0 1014.7 -0.3 76
2019-11-13 16:00:00 22 35 Norte 46 Norte 0 1014.7 -1.1 75
2019-11-13 15:00:00 22.3 36 Norte 48 Norte 0 1014.8 -1.7 73
2019-11-13 14:00:00 22.6 34 Norte 46 Norte 0 1015 -2.1 71
2019-11-13 13:00:00 22.5 32 Norte 50 Norte 0 1015.8 -1.2 73
2019-11-13 12:00:00 22.5 35 Norte 50 Nordeste 0 1016.5 0.3 73
2019-11-13 11:00:00 22.2 37 Norte 50 Norte 0 1017.1 1.7 74
2019-11-13 10:00:00 22 36 Norte 50 Norte 0 1017 2 74
2019-11-13 09:00:00 21.8 38 Norte 54 Norte 0 1016.2 1.8 75
2019-11-13 08:00:00 21.2 42 Norte 58 Norte 0 1015.4 1 77
2019-11-13 07:00:00 21.1 40 Norte 52 Norte 0 1015 0.6 77
2019-11-13 06:00:00 21.2 35 Norte 54 Norte 0 1014.4 0 78
2019-11-13 05:00:00 21 32 Norte 48 Norte 0 1014.4 -0.1 77
2019-11-13 04:00:00 21.1 36 Norte 46 Norte 0 1014.4 -0.2 76
2019-11-13 03:00:00 21.1 35 Norte 52 Norte 0 1014.4 -1 77
2019-11-13 02:00:00 21.1 33 Norte 52 Norte 0 1014.5 -0.8 77
2019-11-13 01:00:00 21.3 42 Norte -- -- -- 1014.6 -0.6 76
2019-11-13 00:00:00 21.3 33 Norte 48 Norte 0 1015.4 0.2 75
2019-11-12 23:00:00 21.4 37 Norte 54 Norte 0 1015.3 0.1 77
2019-11-12 22:00:00 21.6 38 Norte 50 Norte 0 1015.2 0.3 78
2019-11-12 21:00:00 21.5 35 Norte 46 Norte 0 1015.2 0.4 78
2019-11-12 20:00:00 21.6 38 Norte 52 Norte 0 1015.2 0.2 81
2019-11-12 19:00:00 21.7 35 Norte 46 Norte 0 1014.9 -0.5 83
2019-11-12 18:00:00 21.5 30 Norte 58 Norte 0 1014.8 -0.6 83
2019-11-12 17:00:00 21.9 38 Norte 50 Norte 0 1015 -1.2 80
2019-11-12 16:00:00 22 32 Norte 52 Norte 0 1015.4 -1.4 79
2019-11-12 15:00:00 22.7 33 Norte 52 Nordeste 0 1015.4 -2.2 73
2019-11-12 14:00:00 22.5 38 Norte 55 Norte 0 1016.2 -1.8 76
2019-11-12 13:00:00 22.8 27 Norte 50 Norte 0 1016.8 -1 75
2019-11-12 12:00:00 22.9 35 Norte 46 Norte 0 1017.6 -0.2 72
2019-11-12 11:00:00 22.9 29 Norte 46 Norte 0 1018 0.9 73
2019-11-12 10:00:00 22.4 33 Norte 50 Norte 0 1017.8 1.4 70
2019-11-12 09:00:00 22 39 Norte 55 Norte 0 1017.8 1.4 72
2019-11-12 08:00:00 21.8 40 Norte 55 Norte 0 1017.1 1 70
2019-11-12 07:00:00 21.5 48 Norte 55 Norte 0 1016.4 -0.5 73
2019-11-12 06:00:00 21.3 37 Norte 52 Norte 0 1016.4 -1 75
2019-11-12 05:00:00 21.4 34 Norte 50 Norte 0 1016.1 -1.8 74
2019-11-12 04:00:00 21.3 38 Norte 58 Norte 0 1016.9 -1.6 70
2019-11-12 03:00:00 21.5 35 Norte 55 Norte 0 1017.4 -1.3 71
2019-11-12 02:00:00 21.4 39 Norte 50 Norte 0 1017.9 -1.2 72
2019-11-12 01:00:00 21.4 35 Norte -- -- -- 1018.5 -0.8 75
2019-11-12 00:00:00 21.3 37 Norte 48 Norte 0 1018.7 -0.2 78
2019-11-11 23:00:00 21.3 32 Norte 54 Norte 0 1019.1 0.4 79
2019-11-11 22:00:00 21.4 40 Norte 55 Norte 0 1019.3 1 79
2019-11-11 21:00:00 21.5 44 Norte 54 Norte 0 1018.9 0.7 73
2019-11-11 20:00:00 21.6 35 Norte 58 Norte 0 1018.7 0.5 76
2019-11-11 19:00:00 21.3 35 Norte 52 Norte 0 1018.3 -0.1 77
2019-11-11 18:00:00 21.6 39 Norte 55 Norte 0 1018.2 -0.6 76
2019-11-11 17:00:00 21.7 41 Norte 55 Norte 0 1018.2 -0.7 75
2019-11-11 16:00:00 21.9 42 Norte 55 Norte 0 1018.4 -1.4 75
2019-11-11 15:00:00 22.1 42 Norte 59 Norte 0 1018.8 -1.4 74
2019-11-11 14:00:00 22.5 45 Norte 54 Norte 0 1018.9 -2.3 73
2019-11-11 13:00:00 22.5 33 Norte 58 Nordeste 0 1019.8 -1.4 69
2019-11-11 12:00:00 22.1 48 Nordeste 65 Nordeste 0 1020.2 -0.6 70
2019-11-11 11:00:00 22.4 40 Nordeste 68 Norte 0 1021.2 0.8 67
2019-11-11 10:00:00 21.9 47 Norte 61 Norte 0 1021.2 1.1 69
2019-11-11 09:00:00 21.6 44 Norte 58 Nordeste 0 1020.8 0.7 71
2019-11-11 08:00:00 21.3 39 Norte 58 Nordeste 0 1020.4 0.2 69
2019-11-11 07:00:00 21.2 38 Norte 59 Norte 0 1020.1 -0.2 71
2019-11-11 06:00:00 21.2 41 Norte 54 Nordeste 0 1020.1 -0.7 74
2019-11-11 05:00:00 21.6 37 Norte 58 Norte 0 1020.2 -1 73
2019-11-11 04:00:00 21.3 38 Norte 54 Norte 0 1020.3 -1 68
2019-11-11 03:00:00 21.4 37 Norte 55 Norte 0 1020.8 -0.8 70
2019-11-11 02:00:00 21.5 39 Norte 50 Norte 0 1021.2 -0.7 75
2019-11-11 01:00:00 21.3 33 Norte -- -- -- 1021.3 -0.8 71
2019-11-11 00:00:00 21.6 36 Norte 52 Norte 0 1021.6 0.1 74
2019-11-10 23:00:00 21.5 37 Norte 54 Norte 0 1021.9 0.9 78
2019-11-10 22:00:00 21.6 39 Norte 55 Norte 0 1022.1 1.8 77
2019-11-10 21:00:00 21.8 39 Norte 52 Nordeste 0 1021.5 1.8 81
2019-11-10 20:00:00 21.9 40 Norte 54 Norte 0 1021 1 80
2019-11-10 19:00:00 21.9 40 Norte 61 Nordeste 0 1020.3 0.6 77
2019-11-10 18:00:00 21.9 41 Norte 52 Norte 0 1019.7 -0.1 77
2019-11-10 17:00:00 22.1 39 Norte 55 Nordeste 0 1020 -0.1 76
2019-11-10 16:00:00 22.2 36 Nordeste 54 Norte 0 1019.7 -1.2 73
2019-11-10 15:00:00 22.1 39 Norte 55 Norte 0 1019.8 -1.9 73
2019-11-10 14:00:00 22.2 37 Norte 55 Nordeste 0 1020.1 -2 72
2019-11-10 13:00:00 22.1 42 Nordeste 58 Nordeste 0 1020.9 -0.8 71
2019-11-10 12:00:00 22.2 41 Norte 54 Nordeste 0 1021.7 0.3 69
2019-11-10 11:00:00 22.4 41 Norte 59 Nordeste 0 1022.1 1.5 67
2019-11-10 10:00:00 22.2 32 Norte 54 Norte 0 1021.7 1.7 68
2019-11-10 09:00:00 21.8 40 Norte 61 Norte 0 1021.4 1.7 66
2019-11-10 08:00:00 21.4 41 Norte 55 Nordeste 0 1020.6 1 71
2019-11-10 07:00:00 21 38 Norte 59 Norte 0 1020 0.2 66
2019-11-10 06:00:00 21.2 41 Norte 54 Norte 0 1019.7 -0.3 66
2019-11-10 05:00:00 21.1 45 Nordeste 63 Norte 0 1019.6 -0.7 70
2019-11-10 04:00:00 21.2 44 Norte 59 Norte 0 1019.8 -1 67
2019-11-10 03:00:00 21.2 43 Norte 59 Norte 0 1020 -0.9 71
2019-11-10 02:00:00 21.4 46 Nordeste 58 Norte 0 1020.3 -0.9 66
2019-11-10 01:00:00 21.4 41 Norte -- -- -- 1020.8 -0.1 73
2019-11-10 00:00:00 21.3 46 Norte 58 Norte 0 1020.9 0.3 69